Time;durP1;ratioP1;P1;durP2;ratioP2;P2;SDS_P1;SDS_P2;PMS_P1;PMS_P2;Temp;Humidity;BMP_temperature;BMP_pressure;BME280_temperature;BME280_humidity;BME280_pressure;Samples;Min_cycle;Max_cycle;Signal;HPM_P1;HPM_P2
2021/12/09 00:00:44;;;;;;;12.88;7.10;;;;;;;;;;5093948;28;20052;-86
2021/12/09 00:03:14;;;;;;;13.98;7.68;;;;;;;;;;5060387;28;20056;-86
2021/12/09 00:05:44;;;;;;;17.27;6.60;;;;;;;;;;5093906;28;20048;-86
2021/12/09 00:08:10;;;;;;;15.35;7.70;;;;;;;;;;5060922;28;20059;-86
2021/12/09 00:10:36;;;;;;;24.08;8.15;;;;;;;;;;5094765;28;20055;-86
2021/12/09 00:13:03;;;;;;;11.40;6.93;;;;;;;;;;5061120;28;20512;-86
2021/12/09 00:15:29;;;;;;;13.43;6.55;;;;;;;;;;5060936;28;20084;-86
2021/12/09 00:17:55;;;;;;;12.48;7.70;;;;;;;;;;5093090;28;20052;-86
2021/12/09 00:20:21;;;;;;;12.82;5.90;;;;;;;;;;5060360;28;20056;-86
2021/12/09 00:22:47;;;;;;;11.73;6.78;;;;;;;;;;5060928;28;20047;-86
2021/12/09 00:25:14;;;;;;;13.50;6.75;;;;;;;;;;5060365;28;20055;-85
2021/12/09 00:27:41;;;;;;;8.45;5.88;;;;;;;;;;5094290;28;20052;-86
2021/12/09 00:30:08;;;;;;;10.80;7.13;;;;;;;;;;5060251;28;20059;-85
2021/12/09 00:32:34;;;;;;;12.90;7.43;;;;;;;;;;5060855;28;20142;-85
2021/12/09 00:35:02;;;;;;;14.27;7.25;;;;;;;;;;5060483;28;20058;-85
2021/12/09 00:37:35;;;;;;;12.52;6.57;;;;;;;;;;5060211;28;20056;-86
2021/12/09 00:40:01;;;;;;;13.65;7.13;;;;;;;;;;5059612;28;20056;-86
2021/12/09 00:42:27;;;;;;;13.68;7.80;;;;;;;;;;5093240;28;20063;-86
2021/12/09 00:44:54;;;;;;;10.68;6.85;;;;;;;;;;5059457;28;20045;-85
2021/12/09 00:47:21;;;;;;;25.10;7.65;;;;;;;;;;5059852;28;20060;-86
2021/12/09 00:49:47;;;;;;;11.50;6.70;;;;;;;;;;5058847;28;20083;-86
2021/12/09 00:52:14;;;;;;;13.63;7.53;;;;;;;;;;5059650;28;20062;-86
2021/12/09 00:54:42;;;;;;;11.50;7.40;;;;;;;;;;5059871;28;20054;-86
2021/12/09 00:57:08;;;;;;;9.68;6.57;;;;;;;;;;5059511;28;20074;-86
2021/12/09 00:59:34;;;;;;;12.25;7.07;;;;;;;;;;5059091;28;20055;-86
2021/12/09 01:02:01;;;;;;;12.85;8.05;;;;;;;;;;5093037;28;20059;-86
2021/12/09 01:04:27;;;;;;;12.90;7.63;;;;;;;;;;5059398;28;20040;-86
2021/12/09 01:06:53;;;;;;;13.90;7.82;;;;;;;;;;5093202;28;20055;-86
2021/12/09 01:09:19;;;;;;;12.80;8.10;;;;;;;;;;5063303;28;20492;-86
2021/12/09 01:11:45;;;;;;;15.70;7.47;;;;;;;;;;5096793;28;20052;-86
2021/12/09 01:14:11;;;;;;;12.02;8.40;;;;;;;;;;5097006;28;20195;-86
2021/12/09 01:16:37;;;;;;;10.43;7.50;;;;;;;;;;5097294;28;20126;-86
2021/12/09 01:19:04;;;;;;;12.35;8.63;;;;;;;;;;5097083;28;20052;-86
2021/12/09 01:21:30;;;;;;;15.60;6.57;;;;;;;;;;5062765;28;20130;-86
2021/12/09 01:23:56;;;;;;;13.20;8.38;;;;;;;;;;5063346;28;20056;-87
2021/12/09 01:26:24;;;;;;;14.65;8.68;;;;;;;;;;5063563;28;20135;-87
2021/12/09 01:28:57;;;;;;;14.57;9.45;;;;;;;;;;5096931;28;20052;-87
2021/12/09 01:31:28;;;;;;;15.88;7.85;;;;;;;;;;5063344;28;20056;-87
2021/12/09 01:33:59;;;;;;;15.48;9.30;;;;;;;;;;5064134;28;20056;-87
2021/12/09 01:36:25;;;;;;;14.68;8.80;;;;;;;;;;5063717;28;20063;-87
2021/12/09 01:38:51;;;;;;;12.63;8.82;;;;;;;;;;5096783;28;20480;-86
2021/12/09 01:41:18;;;;;;;25.20;10.02;;;;;;;;;;5096798;28;20048;-86
2021/12/09 01:43:44;;;;;;;20.23;8.85;;;;;;;;;;5080548;28;20492;-87
2021/12/09 01:46:12;;;;;;;14.95;9.13;;;;;;;;;;5062846;28;20511;-86
2021/12/09 01:48:39;;;;;;;12.55;8.45;;;;;;;;;;5062750;28;20521;-86
2021/12/09 01:51:05;;;;;;;15.40;8.43;;;;;;;;;;5062732;28;20055;-87
2021/12/09 01:53:32;;;;;;;17.80;10.13;;;;;;;;;;5062854;28;20048;-87
2021/12/09 01:55:59;;;;;;;16.45;8.57;;;;;;;;;;5079769;28;20389;-87
2021/12/09 01:58:26;;;;;;;12.10;8.05;;;;;;;;;;5061911;28;20063;-87
2021/12/09 02:00:52;;;;;;;13.65;9.40;;;;;;;;;;5062658;28;20059;-86
2021/12/09 02:03:18;;;;;;;14.18;9.98;;;;;;;;;;5096394;28;20404;-86
2021/12/09 02:05:44;;;;;;;15.13;9.65;;;;;;;;;;5095930;28;20493;-86
2021/12/09 02:08:13;;;;;;;13.45;8.63;;;;;;;;;;5062311;28;20051;-87
2021/12/09 02:10:40;;;;;;;17.30;9.93;;;;;;;;;;5062537;28;20052;-87
2021/12/09 02:13:06;;;;;;;13.38;9.40;;;;;;;;;;5062613;28;20052;-87
2021/12/09 02:15:33;;;;;;;14.45;9.38;;;;;;;;;;5062081;28;20048;-87
2021/12/09 02:17:59;;;;;;;15.75;8.35;;;;;;;;;;5095916;28;20397;-87
2021/12/09 02:20:32;;;;;;;14.27;9.90;;;;;;;;;;5096496;28;20526;-87
2021/12/09 02:22:58;;;;;;;17.98;8.40;;;;;;;;;;5062760;28;20056;-87
2021/12/09 02:25:24;;;;;;;15.23;9.55;;;;;;;;;;5062588;28;20131;-87
2021/12/09 02:27:50;;;;;;;17.17;9.85;;;;;;;;;;5062983;28;20056;-87
2021/12/09 02:30:16;;;;;;;26.73;10.55;;;;;;;;;;5095130;28;20052;-87
2021/12/09 02:32:45;;;;;;;18.60;10.55;;;;;;;;;;5062118;28;20047;-87
2021/12/09 02:35:11;;;;;;;16.48;8.57;;;;;;;;;;5062401;28;20498;-86
2021/12/09 02:37:38;;;;;;;13.38;9.48;;;;;;;;;;5062657;28;20512;-86
2021/12/09 02:40:06;;;;;;;16.58;10.25;;;;;;;;;;5095576;28;20113;-86
2021/12/09 02:42:32;;;;;;;20.90;10.63;;;;;;;;;;5078593;28;20078;-86
2021/12/09 02:44:59;;;;;;;21.38;10.82;;;;;;;;;;5078175;28;20052;-87
2021/12/09 02:47:26;;;;;;;17.02;11.25;;;;;;;;;;5079375;28;20584;-87
2021/12/09 02:49:52;;;;;;;18.35;11.25;;;;;;;;;;5077967;28;20528;-86
2021/12/09 02:52:19;;;;;;;16.95;11.63;;;;;;;;;;5096594;28;20127;-86
2021/12/09 02:54:45;;;;;;;17.85;10.27;;;;;;;;;;5062541;28;20135;-86
2021/12/09 02:57:12;;;;;;;17.80;10.10;;;;;;;;;;5077830;28;20063;-86
2021/12/09 02:59:38;;;;;;;24.08;10.88;;;;;;;;;;5061716;28;20056;-86
2021/12/09 03:02:05;;;;;;;26.20;12.75;;;;;;;;;;5077898;28;20101;-87
2021/12/09 03:04:46;;;;;;;15.95;11.23;;;;;;;;;;5061098;28;20048;-86
2021/12/09 03:07:18;;;;;;;25.92;11.35;;;;;;;;;;5060926;28;20055;-86
2021/12/09 03:09:50;;;;;;;19.98;11.20;;;;;;;;;;5061429;28;20052;-86
2021/12/09 03:12:21;;;;;;;15.48;10.18;;;;;;;;;;5077839;28;20052;-86
2021/12/09 03:14:47;;;;;;;14.82;10.45;;;;;;;;;;5077835;28;20064;-86
2021/12/09 03:17:14;;;;;;;17.20;10.20;;;;;;;;;;5077724;28;20055;-86
2021/12/09 03:19:40;;;;;;;15.13;9.98;;;;;;;;;;5060922;28;20104;-86
2021/12/09 03:22:06;;;;;;;17.00;9.93;;;;;;;;;;5061730;28;20142;-86
2021/12/09 03:24:32;;;;;;;20.48;11.07;;;;;;;;;;5061002;28;20055;-86
2021/12/09 03:26:58;;;;;;;17.38;10.63;;;;;;;;;;5061063;28;20048;-86
2021/12/09 03:29:26;;;;;;;22.77;10.63;;;;;;;;;;5060967;28;20056;-86
2021/12/09 03:31:53;;;;;;;15.25;9.80;;;;;;;;;;5076774;28;20516;-86
2021/12/09 03:34:20;;;;;;;16.63;10.50;;;;;;;;;;5060675;28;20083;-86
2021/12/09 03:36:47;;;;;;;17.20;10.00;;;;;;;;;;5077086;28;20056;-86
2021/12/09 03:39:17;;;;;;;18.08;11.00;;;;;;;;;;5060428;28;20052;-86
2021/12/09 03:41:44;;;;;;;20.42;12.13;;;;;;;;;;5061411;28;20048;-86
2021/12/09 03:44:10;;;;;;;20.73;10.82;;;;;;;;;;5060599;28;20048;-86
2021/12/09 03:46:36;;;;;;;16.52;11.13;;;;;;;;;;5061084;28;20048;-86
2021/12/09 03:49:03;;;;;;;20.80;10.93;;;;;;;;;;5078271;28;20567;-86
2021/12/09 03:51:29;;;;;;;25.35;11.05;;;;;;;;;;5062272;28;20048;-86
2021/12/09 03:53:55;;;;;;;15.80;10.52;;;;;;;;;;5061624;28;20048;-86
2021/12/09 03:56:21;;;;;;;14.95;10.80;;;;;;;;;;5061128;28;20051;-86
2021/12/09 03:58:47;;;;;;;15.85;11.68;;;;;;;;;;5062088;28;20048;-86
2021/12/09 04:01:13;;;;;;;20.83;11.15;;;;;;;;;;5077194;28;20055;-86
2021/12/09 04:03:40;;;;;;;20.88;10.50;;;;;;;;;;5060299;28;20485;-85
2021/12/09 04:06:06;;;;;;;17.92;11.35;;;;;;;;;;5061727;28;20040;-86
2021/12/09 04:08:33;;;;;;;20.15;10.05;;;;;;;;;;5078744;28;20054;-85
2021/12/09 04:10:59;;;;;;;20.48;11.48;;;;;;;;;;5061715;28;20059;-86
2021/12/09 04:13:27;;;;;;;23.95;10.85;;;;;;;;;;5060159;28;20048;-86
2021/12/09 04:15:53;;;;;;;28.08;12.13;;;;;;;;;;5059883;28;20075;-86
2021/12/09 04:18:20;;;;;;;18.55;12.15;;;;;;;;;;5059688;28;20134;-86
2021/12/09 04:20:46;;;;;;;16.73;11.43;;;;;;;;;;5059823;28;20060;-86
2021/12/09 04:23:12;;;;;;;19.90;11.68;;;;;;;;;;5059743;28;20068;-85
2021/12/09 04:25:38;;;;;;;15.60;10.30;;;;;;;;;;5077420;28;20382;-86
2021/12/09 04:28:05;;;;;;;19.30;11.27;;;;;;;;;;5076546;28;20099;-86
2021/12/09 04:30:32;;;;;;;20.15;11.07;;;;;;;;;;5094241;28;20373;-86
2021/12/09 04:32:58;;;;;;;17.95;11.23;;;;;;;;;;5076615;28;20052;-86
2021/12/09 04:35:24;;;;;;;17.42;10.68;;;;;;;;;;5076127;28;20048;-86
2021/12/09 04:37:50;;;;;;;15.13;11.35;;;;;;;;;;5059506;28;20426;-86
2021/12/09 04:40:17;;;;;;;21.15;11.27;;;;;;;;;;5094844;28;20039;-86
2021/12/09 04:42:43;;;;;;;16.83;10.98;;;;;;;;;;5094531;28;20055;-85
2021/12/09 04:45:10;;;;;;;26.58;12.32;;;;;;;;;;5059267;28;20048;-86
2021/12/09 04:47:37;;;;;;;19.58;11.70;;;;;;;;;;5060492;28;20427;-86
2021/12/09 04:50:05;;;;;;;16.30;10.55;;;;;;;;;;5060216;28;20443;-86
2021/12/09 04:52:31;;;;;;;14.43;9.82;;;;;;;;;;5059647;28;20055;-86
2021/12/09 04:54:57;;;;;;;19.58;11.20;;;;;;;;;;5059727;28;20131;-86
2021/12/09 04:57:23;;;;;;;15.85;10.57;;;;;;;;;;5058638;28;20083;-86
2021/12/09 04:59:51;;;;;;;19.35;11.25;;;;;;;;;;5059897;28;20052;-86
2021/12/09 05:05:12;;;;;;;18.10;11.20;;;;;;;;;;5055608;28;20088;-86
2021/12/09 05:07:38;;;;;;;20.15;11.00;;;;;;;;;;5055906;28;20048;-86
2021/12/09 05:10:05;;;;;;;17.80;10.38;;;;;;;;;;5038916;28;20412;-86
2021/12/09 05:12:31;;;;;;;16.48;11.27;;;;;;;;;;5055468;28;20048;-86
2021/12/09 05:14:57;;;;;;;22.92;10.85;;;;;;;;;;5038515;28;20141;-86
2021/12/09 05:17:23;;;;;;;27.52;12.63;;;;;;;;;;5038770;28;20515;-85
2021/12/09 05:19:49;;;;;;;15.38;10.80;;;;;;;;;;5038040;28;20048;-86
2021/12/09 05:22:15;;;;;;;25.75;10.00;;;;;;;;;;5054984;28;20605;-86
2021/12/09 05:24:43;;;;;;;17.85;10.48;;;;;;;;;;5038405;28;20062;-86
2021/12/09 05:27:11;;;;;;;18.23;10.32;;;;;;;;;;5038426;28;20055;-86
2021/12/09 05:29:42;;;;;;;14.95;9.43;;;;;;;;;;5055379;28;20048;-86
2021/12/09 05:32:11;;;;;;;17.33;9.30;;;;;;;;;;5038606;28;20195;-86
2021/12/09 05:34:38;;;;;;;20.80;11.00;;;;;;;;;;5055784;28;20552;-86
2021/12/09 05:37:08;;;;;;;20.92;10.88;;;;;;;;;;5071326;28;20413;-86
2021/12/09 05:39:36;;;;;;;23.98;11.13;;;;;;;;;;5070967;28;20172;-86
2021/12/09 05:42:03;;;;;;;18.08;10.50;;;;;;;;;;5070216;28;20352;-87
2021/12/09 05:44:29;;;;;;;27.80;13.25;;;;;;;;;;5094491;28;20036;-86
2021/12/09 05:46:55;;;;;;;24.25;10.75;;;;;;;;;;5076067;28;20052;-87
2021/12/09 05:49:21;;;;;;;18.98;10.30;;;;;;;;;;5075685;28;20052;-87
2021/12/09 05:51:48;;;;;;;15.80;12.02;;;;;;;;;;5075542;28;20109;-87
2021/12/09 05:54:14;;;;;;;19.60;10.63;;;;;;;;;;5060633;28;20507;-87
2021/12/09 05:56:40;;;;;;;21.63;11.07;;;;;;;;;;5062603;28;20489;-87
2021/12/09 05:59:07;;;;;;;15.52;10.73;;;;;;;;;;5079152;28;20515;-86
2021/12/09 06:01:33;;;;;;;19.83;10.32;;;;;;;;;;5062817;28;20519;-86
2021/12/09 06:04:00;;;;;;;18.52;11.00;;;;;;;;;;5062334;28;20107;-86
2021/12/09 06:06:26;;;;;;;14.57;10.30;;;;;;;;;;5062162;28;20059;-86
2021/12/09 06:08:52;;;;;;;16.92;10.40;;;;;;;;;;5079197;28;20428;-86
2021/12/09 06:11:18;;;;;;;22.27;11.70;;;;;;;;;;5079682;28;20044;-85
2021/12/09 06:13:46;;;;;;;21.27;11.48;;;;;;;;;;5062877;28;20059;-86
2021/12/09 06:16:12;;;;;;;13.55;9.65;;;;;;;;;;5063471;28;20496;-86
2021/12/09 06:18:38;;;;;;;22.00;10.82;;;;;;;;;;5062865;28;20550;-86
2021/12/09 06:21:05;;;;;;;15.95;10.27;;;;;;;;;;5063637;28;20379;-85
2021/12/09 06:23:31;;;;;;;17.60;10.30;;;;;;;;;;5079062;28;20382;-86
2021/12/09 06:25:57;;;;;;;18.67;10.82;;;;;;;;;;5062603;28;20059;-86
2021/12/09 06:28:23;;;;;;;17.08;11.25;;;;;;;;;;5079613;28;20084;-85
2021/12/09 06:30:49;;;;;;;18.65;11.18;;;;;;;;;;5063920;28;20051;-86
2021/12/09 06:33:15;;;;;;;18.17;12.00;;;;;;;;;;5078886;28;20048;-86
2021/12/09 06:35:42;;;;;;;20.15;11.15;;;;;;;;;;5079061;28;20569;-86
2021/12/09 06:38:12;;;;;;;16.70;10.65;;;;;;;;;;5062546;28;20492;-86
2021/12/09 06:40:38;;;;;;;18.13;9.57;;;;;;;;;;5062189;28;20408;-86
2021/12/09 06:43:05;;;;;;;18.40;9.90;;;;;;;;;;5062495;28;20060;-85
2021/12/09 06:45:32;;;;;;;12.50;9.05;;;;;;;;;;5095754;28;20067;-86
2021/12/09 06:47:58;;;;;;;19.42;10.55;;;;;;;;;;5061691;28;20109;-86
2021/12/09 06:50:24;;;;;;;17.15;11.57;;;;;;;;;;5058760;28;20382;-86
2021/12/09 06:52:51;;;;;;;17.02;10.77;;;;;;;;;;5058570;28;20139;-86
2021/12/09 06:55:18;;;;;;;15.45;10.13;;;;;;;;;;5059026;28;20082;-85
2021/12/09 06:57:44;;;;;;;17.40;10.02;;;;;;;;;;5058584;28;20052;-86
2021/12/09 07:00:12;;;;;;;23.40;10.90;;;;;;;;;;5092165;28;20056;-86
2021/12/09 07:02:38;;;;;;;22.83;11.70;;;;;;;;;;5057681;28;20466;-86
2021/12/09 07:05:07;;;;;;;26.30;11.68;;;;;;;;;;5056777;28;20044;-86
2021/12/09 07:07:33;;;;;;;17.63;11.90;;;;;;;;;;5057658;28;20083;-86
2021/12/09 07:10:00;;;;;;;15.60;10.65;;;;;;;;;;5091194;28;20048;-86
2021/12/09 07:12:26;;;;;;;14.02;10.57;;;;;;;;;;5058195;28;20057;-86
2021/12/09 07:14:52;;;;;;;22.92;10.20;;;;;;;;;;5091575;28;20139;-87
2021/12/09 07:17:20;;;;;;;22.48;11.35;;;;;;;;;;5059135;28;20505;-86
2021/12/09 07:19:46;;;;;;;17.98;11.40;;;;;;;;;;5058018;28;20048;-86
2021/12/09 07:22:12;;;;;;;15.18;10.32;;;;;;;;;;5057794;28;20143;-86
2021/12/09 07:24:38;;;;;;;13.07;9.75;;;;;;;;;;5092135;28;20048;-87
2021/12/09 07:27:04;;;;;;;22.65;11.98;;;;;;;;;;5057662;28;20106;-87
2021/12/09 07:29:32;;;;;;;19.77;11.40;;;;;;;;;;5092110;28;20527;-87
2021/12/09 07:31:58;;;;;;;14.55;9.82;;;;;;;;;;5058337;28;20058;-86
2021/12/09 07:34:24;;;;;;;23.25;10.85;;;;;;;;;;5057585;28;20052;-87
2021/12/09 07:36:50;;;;;;;25.50;10.25;;;;;;;;;;5091270;28;20056;-87
2021/12/09 07:39:16;;;;;;;30.05;11.90;;;;;;;;;;5091224;28;20523;-87
2021/12/09 07:41:42;;;;;;;15.68;9.55;;;;;;;;;;5057513;28;20060;-86
2021/12/09 07:44:08;;;;;;;14.38;10.20;;;;;;;;;;5057257;28;20044;-86
2021/12/09 07:46:35;;;;;;;20.60;10.70;;;;;;;;;;5091043;28;20118;-86
2021/12/09 07:49:02;;;;;;;15.05;11.15;;;;;;;;;;5057890;28;20063;-86
2021/12/09 07:51:28;;;;;;;25.08;11.40;;;;;;;;;;5060636;28;20148;-86
2021/12/09 07:53:54;;;;;;;31.50;12.77;;;;;;;;;;5060233;28;20040;-86
2021/12/09 07:56:20;;;;;;;13.93;10.23;;;;;;;;;;5059957;28;20135;-86
2021/12/09 07:58:46;;;;;;;19.80;10.95;;;;;;;;;;5077365;28;20090;-86
2021/12/09 08:01:12;;;;;;;17.98;9.90;;;;;;;;;;5076761;28;20054;-86
2021/12/09 08:03:39;;;;;;;21.13;10.73;;;;;;;;;;5060045;28;20114;-86
2021/12/09 08:06:05;;;;;;;21.05;10.93;;;;;;;;;;5060295;28;20094;-86
2021/12/09 08:08:31;;;;;;;12.75;9.45;;;;;;;;;;5077059;28;20044;-85
2021/12/09 08:10:57;;;;;;;17.80;10.30;;;;;;;;;;5060653;28;20059;-86
2021/12/09 08:13:23;;;;;;;20.55;10.23;;;;;;;;;;5060792;28;20048;-86
2021/12/09 08:15:51;;;;;;;17.67;10.65;;;;;;;;;;5059959;28;20044;-86
2021/12/09 08:20:50;;;;;;;29.70;10.90;;;;;;;;;;5093551;28;20048;-86
2021/12/09 08:23:16;;;;;;;17.55;9.77;;;;;;;;;;5060160;28;20048;-85
2021/12/09 08:25:43;;;;;;;19.60;12.10;;;;;;;;;;5094008;28;20055;-86
2021/12/09 08:28:10;;;;;;;23.13;10.65;;;;;;;;;;5059949;28;20516;-85
2021/12/09 08:30:38;;;;;;;17.95;10.07;;;;;;;;;;5060151;28;20056;-86
2021/12/09 08:33:05;;;;;;;18.60;11.10;;;;;;;;;;5059455;28;20520;-86
2021/12/09 08:35:31;;;;;;;19.83;10.32;;;;;;;;;;5061209;28;20139;-86
2021/12/09 08:37:58;;;;;;;18.75;10.05;;;;;;;;;;5076583;28;20067;-86
2021/12/09 08:40:25;;;;;;;16.80;10.75;;;;;;;;;;5059558;28;20079;-86
2021/12/09 08:42:51;;;;;;;15.75;9.50;;;;;;;;;;5076574;28;20047;-86
2021/12/09 08:45:17;;;;;;;15.73;10.02;;;;;;;;;;5093232;28;20093;-85
2021/12/09 08:47:44;;;;;;;17.00;9.63;;;;;;;;;;5076427;28;20056;-86
2021/12/09 08:50:11;;;;;;;25.70;11.65;;;;;;;;;;5092175;28;20056;-86
2021/12/09 08:52:37;;;;;;;20.33;11.27;;;;;;;;;;5059398;28;20055;-85
2021/12/09 08:55:03;;;;;;;28.27;12.90;;;;;;;;;;5060018;28;20048;-85
2021/12/09 08:57:31;;;;;;;26.38;11.05;;;;;;;;;;5059562;28;20052;-85
2021/12/09 08:59:58;;;;;;;21.30;11.60;;;;;;;;;;5059821;28;20557;-86
2021/12/09 09:02:24;;;;;;;18.33;11.88;;;;;;;;;;5077706;28;20139;-86
2021/12/09 09:04:50;;;;;;;29.75;10.90;;;;;;;;;;5076677;28;20401;-85
2021/12/09 09:07:17;;;;;;;17.38;10.27;;;;;;;;;;5059429;28;20092;-85
2021/12/09 09:09:43;;;;;;;19.92;11.07;;;;;;;;;;5075772;28;20052;-86
2021/12/09 09:12:10;;;;;;;18.48;11.55;;;;;;;;;;5076348;28;20139;-86
2021/12/09 09:14:37;;;;;;;17.33;9.73;;;;;;;;;;5059475;28;20041;-85
2021/12/09 09:17:04;;;;;;;15.93;10.35;;;;;;;;;;5093449;28;20143;-85
2021/12/09 09:19:30;;;;;;;15.07;9.68;;;;;;;;;;5059724;28;20044;-86
2021/12/09 09:21:56;;;;;;;18.42;10.18;;;;;;;;;;5059859;28;20056;-86
2021/12/09 09:24:22;;;;;;;23.83;10.20;;;;;;;;;;5059914;28;20052;-85
2021/12/09 09:26:48;;;;;;;24.13;10.23;;;;;;;;;;5076327;28;20043;-85
2021/12/09 09:29:14;;;;;;;18.52;11.27;;;;;;;;;;5077996;28;20059;-85
2021/12/09 09:31:42;;;;;;;17.38;10.93;;;;;;;;;;5062992;28;20550;-85
2021/12/09 09:34:10;;;;;;;14.13;9.15;;;;;;;;;;5063204;28;20052;-85
2021/12/09 09:36:39;;;;;;;21.42;10.52;;;;;;;;;;5063234;28;20404;-85
2021/12/09 09:39:19;;;;;;;18.70;9.77;;;;;;;;;;5062991;28;20154;-85
2021/12/09 09:41:54;;;;;;;19.25;10.63;;;;;;;;;;5096553;28;20389;-85
2021/12/09 09:44:23;;;;;;;21.60;9.43;;;;;;;;;;5079743;28;20117;-85
2021/12/09 09:46:49;;;;;;;14.93;8.10;;;;;;;;;;5063146;28;20044;-85
2021/12/09 09:49:15;;;;;;;15.25;8.90;;;;;;;;;;5063087;28;20060;-85
2021/12/09 09:51:41;;;;;;;17.85;9.35;;;;;;;;;;5096258;28;20059;-85
2021/12/09 09:54:09;;;;;;;31.60;13.23;;;;;;;;;;5062997;28;20051;-86
2021/12/09 09:56:40;;;;;;;17.98;8.75;;;;;;;;;;5080004;28;20047;-86
2021/12/09 09:59:07;;;;;;;19.60;8.93;;;;;;;;;;5062594;28;20099;-85
2021/12/09 10:01:35;;;;;;;21.35;11.13;;;;;;;;;;5095897;28;20048;-86
2021/12/09 10:04:11;;;;;;;17.75;9.13;;;;;;;;;;5063286;28;20063;-86
2021/12/09 10:06:38;;;;;;;17.25;8.65;;;;;;;;;;5062220;28;20084;-85
2021/12/09 10:09:05;;;;;;;20.67;10.63;;;;;;;;;;5096755;28;20463;-86
2021/12/09 10:11:31;;;;;;;17.48;9.98;;;;;;;;;;5062950;28;20051;-85
2021/12/09 10:14:08;;;;;;;15.70;8.68;;;;;;;;;;5063700;28;20094;-86
2021/12/09 10:16:34;;;;;;;20.95;9.52;;;;;;;;;;5063565;28;20112;-86
2021/12/09 10:19:00;;;;;;;12.52;8.90;;;;;;;;;;5063012;28;20047;-85
2021/12/09 10:21:30;;;;;;;18.20;9.38;;;;;;;;;;5097608;28;20052;-86
2021/12/09 10:24:06;;;;;;;12.30;8.27;;;;;;;;;;5098673;28;20028;-86
2021/12/09 10:26:33;;;;;;;21.48;10.52;;;;;;;;;;5064933;28;20055;-86
2021/12/09 10:29:26;;;;;;;16.30;8.20;;;;;;;;;;5080229;28;20079;-86
2021/12/09 10:31:57;;;;;;;16.42;9.10;;;;;;;;;;5096902;28;20059;-85
2021/12/09 10:34:40;;;;;;;20.13;9.82;;;2.20;99.90;;;;;;5062700;28;20048;-86
2021/12/09 10:37:23;;;;;;;14.80;8.37;;;;;;;;;;5062001;28;20101;-85
2021/12/09 10:39:51;;;;;;;15.52;9.13;;;;;;;;;;5061473;28;20286;-86
2021/12/09 10:42:20;;;;;;;19.38;9.85;;;;;;;;;;5061726;28;20055;-86
2021/12/09 10:44:48;;;;;;;13.43;7.28;;;;;;;;;;5061223;28;20048;-86
2021/12/09 10:47:22;;;;;;;20.17;9.70;;;;;;;;;;5095268;28;20058;-86
2021/12/09 10:50:15;;;;;;;18.27;8.95;;;;;;;;;;5061536;28;20048;-86
2021/12/09 10:52:49;;;;;;;16.98;10.82;;;;;;;;;;5062102;28;20052;-86
2021/12/09 10:55:18;;;;;;;19.88;9.07;;;;;;;;;;5061292;28;20048;-86
2021/12/09 10:57:44;;;;;;;16.50;8.95;;;;;;;;;;5062063;28;20047;-86
2021/12/09 11:00:17;;;;;;;19.15;9.80;;;;;;;;;;5062947;28;20048;-86
2021/12/09 11:03:03;;;;;;;18.70;10.68;;;;;;;;;;5063173;28;20051;-87
2021/12/09 11:05:30;;;;;;;11.45;8.02;;;;;;;;;;5062804;28;20492;-87
2021/12/09 11:08:12;;;;;;;17.40;9.77;;;;;;;;;;5095569;28;20079;-86
2021/12/09 11:10:47;;;;;;;22.58;10.30;;;;;;;;;;5061892;28;20059;-86
2021/12/09 11:13:15;;;;;;;18.35;10.48;;;;;;;;;;5061806;28;20091;-86
2021/12/09 11:15:59;;;;;;;15.68;8.65;;;;;;;;;;5061048;28;20051;-86
2021/12/09 11:18:28;;;;;;;;;;;;;;;;;;5061590;28;20139;-86
2021/12/09 11:20:55;;;;;;;14.23;8.73;;;;;;;;;;5077983;28;20014;-86
2021/12/09 11:23:31;;;;;;;21.83;9.73;;;;;;;;;;5061158;28;20414;-86
2021/12/09 11:26:00;;;;;;;22.58;9.68;;;;;;;;;;5094691;28;20047;-86
2021/12/09 11:28:27;;;;;;;20.70;9.70;;;;;;;;;;5060349;28;20055;-86
2021/12/09 11:31:06;;;;;;;20.50;8.63;;;;;;;;;;5060863;28;20055;-86
2021/12/09 11:33:37;;;;;;;23.75;10.05;;;;;;;;;;5060151;28;20092;-86
2021/12/09 11:36:03;;;;;;;18.50;10.50;;;;;;;;;;5060390;28;20063;-86
2021/12/09 11:38:53;;;;;;;22.90;10.70;;;;;;;;;;5060366;28;20512;-86
2021/12/09 11:41:32;;;;;;;20.23;10.98;;;;;;;;;;5060523;28;20040;-86
2021/12/09 11:43:58;;;;;;;22.08;10.05;;;;;;;;;;5061583;28;20117;-86
2021/12/09 11:46:25;;;;;;;30.10;13.70;;;;;;;;;;5060646;28;20386;-86
2021/12/09 11:48:51;;;;;;;23.60;11.18;;;;;;;;;;5077878;28;20392;-86
2021/12/09 11:51:17;;;;;;;21.15;11.52;;;;;;;;;;5058289;28;20055;-86
2021/12/09 11:53:44;;;;;;;25.40;10.60;;;;;;;;;;5076364;28;20052;-86
2021/12/09 11:56:27;;;;;;;17.55;11.40;;;;;;;;;;5076354;28;20056;-86
2021/12/09 12:06:38;;;;;;;19.23;10.82;;;;;;;;;;5060789;28;20488;-86
2021/12/09 12:07:54;;;;;;;15.60;10.07;;;;;;;;;;5093236;28;20047;-85
2021/12/09 12:13:48;;;;;;;20.70;8.73;;;3.00;99.90;;;;;;5092790;28;20101;-86
2021/12/09 12:16:35;;;;;;;15.27;9.65;;;;;;;;;;5058663;28;20138;-85
2021/12/09 12:19:10;;;;;;;18.77;11.38;;;;;;;;;;5093126;28;20455;-86
2021/12/09 12:21:49;;;;;;;16.13;9.23;;;;;;;;;;5059511;28;20048;-86
2021/12/09 12:27:08;;;;;;;14.88;8.13;;;;;;;;;;5093629;28;20048;-86
2021/12/09 12:30:50;;;;;;;28.20;11.40;;;;;;;;;;5059256;28;20036;-86
2021/12/09 12:38:18;;;;;;;22.85;10.95;;;;;;;;;;5092560;28;20572;-86
2021/12/09 12:40:59;;;;;;;19.65;11.13;;;;;;;;;;5076445;28;20161;-86
2021/12/09 12:43:32;;;;;;;20.48;10.50;;;;;;;;;;5075599;28;20052;-86
2021/12/09 12:48:56;;;;;;;25.83;12.00;;;;;;;;;;5092928;28;20052;-86
2021/12/09 12:51:45;;;;;;;22.50;11.82;;;;;;;;;;5150301;27;1302181;-87
2021/12/09 12:54:19;;;;;;;25.63;10.98;;;;;;;;;;5138308;27;20082;-87
2021/12/09 12:56:47;;;;;;;23.08;12.18;;;;;;;;;;5138750;27;20042;-87
2021/12/09 12:59:15;;;;;;;21.70;13.15;;;;;;;;;;5137978;27;20490;-86
2021/12/09 13:01:47;;;;;;;24.65;12.07;;;;;;;;;;5139021;27;20049;-86
2021/12/09 13:04:25;;;;;;;30.70;13.88;;;;;;;;;;5155510;27;20047;-86
2021/12/09 13:06:57;;;;;;;17.30;12.18;;;;;;;;;;5155139;27;20078;-86
2021/12/09 13:12:04;;;;;;;32.88;12.32;;;;;;;;;;5155022;27;20410;-86
2021/12/09 13:14:34;;;;;;;23.52;12.15;;;;;;;;;;5155068;27;20106;-86
2021/12/09 13:17:09;;;;;;;31.65;13.73;;;;;;;;;;5155455;27;20051;-86
2021/12/09 13:19:47;;;;;;;23.25;11.75;;;;;;;;;;5137733;27;20038;-86
2021/12/09 13:22:16;;;;;;;27.70;12.60;;;;;;;;;;5155020;27;20050;-86
2021/12/09 13:30:08;;;;;;;28.45;11.75;;;;;;;;;;5154731;27;20042;-86
2021/12/09 13:32:56;;;;;;;29.05;13.43;;;;;;;;;;5137934;27;20038;-86
2021/12/09 13:48:57;;;;;;;28.33;14.00;;;;;;;;;;5092235;28;20059;-86
2021/12/09 13:51:51;;;;;;;26.50;11.82;;;;;;;;;;5091470;28;20106;-86
2021/12/09 13:54:28;;;;;;;30.42;13.85;;;;;;;;;;5091784;28;20040;-86
2021/12/09 13:56:58;;;;;;;37.60;15.88;;;;;;;;;;5092106;28;20051;-86
2021/12/09 13:59:26;;;;;;;24.38;13.70;;;;;;;;;;5091653;28;20052;-85
2021/12/09 14:01:53;;;;;;;24.42;13.05;;;;;;;;;;5084118;28;20059;-85
2021/12/09 14:04:21;;;;;;;21.92;12.50;;;;;;;;;;5078301;28;20520;-86
2021/12/09 14:06:54;;;;;;;23.42;11.70;;;;;;;;;;5078353;28;20091;-85
2021/12/09 14:09:21;;;;;;;28.08;14.02;;;;;;;;;;5078261;28;20108;-85
2021/12/09 14:11:48;;;;;;;29.80;15.05;;;;;;;;;;5078690;28;20043;-86
2021/12/09 14:14:18;;;;;;;32.65;13.10;;;;;;;;;;5078173;28;20058;-86
2021/12/09 14:17:03;;;;;;;26.48;13.32;;;;;;;;;;5077791;28;20051;-85
2021/12/09 14:22:00;;;;;;;24.67;11.90;;;;;;;;;;5140370;27;19919;-85
2021/12/09 14:24:28;;;;;;;21.58;11.35;;;;;;;;;;5123501;27;20103;-85
2021/12/09 14:26:58;;;;;;;20.35;11.52;;;;;;;;;;5123686;27;20043;-85
2021/12/09 14:29:25;;;;;;;32.60;14.40;;;;;;;;;;5140937;27;20080;-86
2021/12/09 14:31:53;;;;;;;23.88;13.40;;;;;;;;;;5122720;27;20043;-86
2021/12/09 14:34:19;;;;;;;27.27;13.25;;;;;;;;;;5122716;27;20090;-86
2021/12/09 14:36:46;;;;;;;25.35;13.48;;;;;;;;;;5124054;27;20042;-86
2021/12/09 14:39:14;;;;;;;21.75;12.35;;;;;;;;;;5139787;27;20049;-86
2021/12/09 14:41:41;;;;;;;26.42;15.23;;;;;;;;;;5123369;27;20045;-86
2021/12/09 14:44:09;;;;;;;24.30;12.90;;;;;;;;;;5124364;27;20058;-86
2021/12/09 14:46:37;;;;;;;23.67;13.88;;;;;;;;;;5139472;27;20088;-86
2021/12/09 14:49:23;;;;;;;34.92;13.98;;;;;;;;;;5122480;27;20475;-86
2021/12/09 14:51:50;;;;;;;32.95;12.57;;;;;;;;;;5116236;27;20055;-86
2021/12/09 14:54:17;;;;;;;27.33;13.35;;;;;;;;;;5118652;27;20441;-86
2021/12/09 14:56:48;;;;;;;18.30;11.60;;;;;;;;;;5118524;27;20047;-86
2021/12/09 14:59:14;;;;;;;24.05;12.50;;;;;;;;;;5119501;27;20049;-86
2021/12/09 15:01:41;;;;;;;32.13;11.98;;;;;;;;;;5136038;27;20069;-86
2021/12/09 15:04:14;;;;;;;27.60;12.25;;;;;;;;;;5135928;27;20043;-86
2021/12/09 15:06:43;;;;;;;22.67;13.65;;;;;;;;;;5135879;27;20057;-86
2021/12/09 15:09:14;;;;;;;30.15;13.02;;;;;;;;;;5135266;27;20108;-86
2021/12/09 15:11:45;;;;;;;27.98;12.90;;;;;;;;;;5118665;27;20050;-86
2021/12/09 15:14:16;;;;;;;26.00;12.60;;;;;;;;;;5117152;27;20047;-86
2021/12/09 15:16:42;;;;;;;28.75;14.45;;;;;;;;;;5117702;27;20063;-86
2021/12/09 15:19:15;;;;;;;27.85;13.88;;;;;;;;;;5119064;27;20379;-87